createdAt,value
2022-08-22T00:00:13.445Z,101082.53
2022-08-22T00:02:43.674Z,101105.28
2022-08-22T00:02:49.790Z,101118.50
2022-08-22T00:03:16.023Z,101074.75
2022-08-22T00:06:03.363Z,101103.13
2022-08-22T00:08:43.843Z,101121.09
2022-08-22T00:11:35.420Z,101117.50
2022-08-22T00:14:12.851Z,101090.97
2022-08-22T00:16:46.920Z,101116.34
2022-08-22T00:19:52.205Z,101116.53
2022-08-22T00:22:43.906Z,101111.31
2022-08-22T00:25:37.161Z,101100.84
2022-08-22T00:28:18.279Z,101122.66
2022-08-22T00:30:57.741Z,101071.97
2022-08-22T00:33:30.899Z,101088.63
2022-08-22T00:36:07.955Z,101085.53
2022-08-22T00:38:42.588Z,101102.31
2022-08-22T00:41:31.335Z,101119.50
2022-08-22T00:44:24.025Z,101128.56
2022-08-22T00:47:20.705Z,101123.59
2022-08-22T00:50:06.882Z,101128.94
2022-08-22T00:53:03.244Z,101129.34
2022-08-22T00:55:50.813Z,101122.63
2022-08-22T00:58:38.478Z,101123.78
2022-08-22T01:01:09.625Z,101080.78
2022-08-22T01:03:46.859Z,101121.41
2022-08-22T01:06:22.612Z,101121.00
2022-08-22T01:09:04.369Z,101121.22
2022-08-22T01:12:11.721Z,101106.00
2022-08-22T01:15:01.497Z,101111.44
2022-08-22T01:17:58.868Z,101130.19
2022-08-22T01:20:56.596Z,101140.63
2022-08-22T01:24:00.524Z,101139.22
2022-08-22T01:27:21.603Z,101154.44
2022-08-22T01:30:54.444Z,101144.16
2022-08-22T01:33:52.825Z,101147.22
2022-08-22T01:36:49.286Z,101135.47
2022-08-22T01:39:42.025Z,101143.16
2022-08-22T01:42:22.269Z,101161.09
2022-08-22T01:45:13.737Z,101149.25
2022-08-22T01:47:53.096Z,101112.09
2022-08-22T01:50:56.145Z,101098.28
2022-08-22T01:53:42.338Z,101128.25
2022-08-22T01:56:26.224Z,101152.34
2022-08-22T01:59:04.129Z,101121.03
2022-08-22T02:01:57.596Z,101131.94
2022-08-22T02:04:45.880Z,101152.34
2022-08-22T02:07:31.779Z,101121.00
2022-08-22T02:10:23.390Z,101138.44
2022-08-22T02:13:01.970Z,101124.75
2022-08-22T02:15:45.424Z,101140.22
2022-08-22T02:22:09.667Z,101101.22
2022-08-22T02:28:59.063Z,101154.09
2022-08-22T02:31:58.566Z,101138.19
2022-08-22T02:34:38.716Z,101161.28
2022-08-22T02:37:39.913Z,101147.56
2022-08-22T02:40:28.449Z,101144.88
2022-08-22T02:43:13.072Z,101108.31
2022-08-22T02:46:17.673Z,101073.47
2022-08-22T02:49:06.134Z,101139.34
2022-08-22T02:51:45.010Z,101141.47
2022-08-22T02:54:41.843Z,101123.94
2022-08-22T02:57:27.294Z,101110.53
2022-08-22T03:00:31.819Z,101123.50
2022-08-22T03:03:14.505Z,101084.97
2022-08-22T03:05:49.658Z,101062.19
2022-08-22T03:08:34.496Z,101141.75
2022-08-22T03:11:21.117Z,101141.94
2022-08-22T03:14:10.083Z,101127.69
2022-08-22T03:16:51.260Z,101099.88
2022-08-22T03:19:39.769Z,101109.91
2022-08-22T03:22:40.140Z,101134.13
2022-08-22T03:25:51.663Z,101130.97
2022-08-22T03:28:35.571Z,101092.50
2022-08-22T03:31:39.889Z,101068.13
2022-08-22T03:34:39.824Z,101061.59
2022-08-22T03:40:31.773Z,101086.28
2022-08-22T03:43:26.889Z,101070.88
2022-08-22T03:47:00.619Z,101132.63
2022-08-22T03:53:20.854Z,101110.50
2022-08-22T04:05:36.322Z,101144.78
2022-08-22T04:08:52.425Z,101147.34
2022-08-22T04:12:02.439Z,101145.50
2022-08-22T04:15:14.757Z,101094.63
2022-08-22T04:18:08.405Z,101126.88
2022-08-22T04:21:24.017Z,101143.81
2022-08-22T04:25:08.321Z,101152.38
2022-08-22T04:30:09.537Z,101164.38
2022-08-22T04:32:46.059Z,101105.75
2022-08-22T04:35:31.416Z,101149.94
2022-08-22T04:38:10.310Z,101183.09
2022-08-22T04:40:48.616Z,101130.81
2022-08-22T04:43:28.225Z,101170.63
2022-08-22T04:46:33.742Z,101140.75
2022-08-22T04:49:22.481Z,101145.78
2022-08-22T04:51:51.993Z,101121.19
2022-08-22T04:54:45.940Z,101155.75
2022-08-22T04:57:25.576Z,101181.97
2022-08-22T04:59:59.244Z,101181.81
2022-08-22T05:02:31.535Z,101135.50
2022-08-22T05:05:26.673Z,101123.13
2022-08-22T05:11:28.090Z,101138.78
2022-08-22T05:40:46.171Z,101191.19
2022-08-22T05:43:37.484Z,101164.25
2022-08-22T05:50:50.979Z,101208.16
2022-08-22T05:53:38.731Z,101208.78
2022-08-22T05:56:10.415Z,101199.84
2022-08-22T05:58:40.128Z,101220.56
2022-08-22T06:01:38.744Z,101214.91
2022-08-22T06:04:17.621Z,101220.66
2022-08-22T06:06:54.069Z,101199.81
2022-08-22T06:09:54.073Z,101224.34
2022-08-22T06:12:49.851Z,101200.06
2022-08-22T06:15:44.751Z,101201.66
2022-08-22T06:18:27.488Z,101228.81
2022-08-22T06:21:42.639Z,101217.38
2022-08-22T06:25:00.888Z,101229.13
2022-08-22T06:27:36.476Z,101216.59
2022-08-22T06:30:11.973Z,101187.06
2022-08-22T06:33:06.758Z,101180.19
2022-08-22T06:36:21.137Z,101190.22
2022-08-22T06:39:39.381Z,101234.66
2022-08-22T06:42:16.943Z,101188.22
2022-08-22T06:44:52.439Z,101211.28
2022-08-22T06:48:00.558Z,101196.19
2022-08-22T06:50:47.341Z,101190.09
2022-08-22T06:53:45.967Z,101245.03
2022-08-22T06:57:09.161Z,101231.34
2022-08-22T06:59:14.888Z,101244.81
2022-08-22T07:01:52.903Z,101221.13
2022-08-22T07:04:26.669Z,101191.84
2022-08-22T07:06:59.341Z,101185.59
2022-08-22T07:09:37.110Z,101221.25
2022-08-22T08:06:27.291Z,101210.63
2022-08-22T08:32:57.622Z,101261.69
2022-08-22T08:36:02.824Z,101245.34
2022-08-22T08:38:37.650Z,101208.53
2022-08-22T08:41:59.817Z,101263.97
2022-08-22T08:45:43.039Z,101260.31
2022-08-22T08:48:41.773Z,101251.25
2022-08-22T08:55:33.186Z,101244.94
2022-08-22T08:58:41.719Z,101190.16
2022-08-22T09:09:23.121Z,101243.63
2022-08-22T09:16:29.137Z,101238.66
2022-08-22T09:42:00.434Z,101204.53
2022-08-22T09:59:12.184Z,101264.97
2022-08-22T10:05:53.746Z,101265.13
2022-08-22T10:12:53.701Z,101237.38
2022-08-22T10:16:08.610Z,101210.28
2022-08-22T10:19:03.372Z,101230.72
2022-08-22T10:21:45.418Z,101207.03
2022-08-22T10:25:02.505Z,101248.00
2022-08-22T10:27:55.737Z,101261.16
2022-08-22T10:31:27.612Z,101260.63
2022-08-22T10:34:11.097Z,101241.75
2022-08-22T10:36:54.492Z,101213.59
2022-08-22T10:44:09.317Z,101241.38
2022-08-22T10:46:19.979Z,101260.88
2022-08-22T10:48:58.411Z,101251.69
2022-08-22T10:51:34.481Z,101248.16
2022-08-22T10:54:35.912Z,101249.25
2022-08-22T10:57:27.370Z,101242.34
2022-08-22T11:00:15.931Z,101253.22
2022-08-22T11:28:50.907Z,101232.72
2022-08-22T11:31:28.083Z,101222.78
2022-08-22T11:34:09.611Z,101202.53
2022-08-22T11:36:47.319Z,101196.81
2022-08-22T11:39:58.633Z,101237.81
2022-08-22T11:43:03.168Z,101237.25
2022-08-22T11:45:38.345Z,101222.22
2022-08-22T11:48:35.365Z,101205.97
2022-08-22T11:51:24.963Z,101228.53
2022-08-22T11:57:57.743Z,101230.88
2022-08-22T12:00:53.622Z,101222.44
2022-08-22T12:04:00.769Z,101199.59
2022-08-22T12:06:47.105Z,101230.13
2022-08-22T12:09:51.294Z,101230.50
2022-08-22T12:12:43.573Z,101229.16
2022-08-22T12:15:33.189Z,101198.75
2022-08-22T12:18:21.419Z,101205.09
2022-08-22T12:21:12.207Z,101222.25
2022-08-22T12:23:58.617Z,101211.88
2022-08-22T12:26:50.483Z,101229.09
2022-08-22T12:29:33.830Z,101205.88
2022-08-22T12:32:27.620Z,101200.72
2022-08-22T12:35:13.757Z,101216.06
2022-08-22T12:38:26.611Z,101201.69
2022-08-22T12:41:03.437Z,101209.88
2022-08-22T12:44:07.783Z,101200.47
2022-08-22T12:47:12.309Z,101170.13
2022-08-22T12:50:10.564Z,101190.22
2022-08-22T12:53:16.947Z,101143.38
2022-08-22T13:03:35.781Z,101187.41
2022-08-22T13:06:48.606Z,101150.56
2022-08-22T13:09:28.679Z,101167.50
2022-08-22T13:12:00.363Z,101157.19
2022-08-22T13:14:39.177Z,101140.91
2022-08-22T13:17:24.073Z,101172.28
2022-08-22T13:19:57.188Z,101149.25
2022-08-22T13:22:29.106Z,101178.88
2022-08-22T13:25:05.712Z,101166.97
2022-08-22T13:28:08.888Z,101173.41
2022-08-22T13:58:12.560Z,101166.22
2022-08-22T14:01:15.617Z,101179.88
2022-08-22T14:11:29.532Z,101184.25
2022-08-22T14:14:48.865Z,101168.78
2022-08-22T14:17:43.378Z,101157.28
2022-08-22T14:20:32.397Z,101159.66
2022-08-22T14:34:18.724Z,101149.88
2022-08-22T14:37:00.224Z,101127.41
2022-08-22T14:39:30.405Z,101180.22
2022-08-22T14:42:22.555Z,101139.25
2022-08-22T14:51:27.673Z,101183.19
2022-08-22T14:53:04.621Z,101165.19
2022-08-22T14:55:41.740Z,101151.59
2022-08-22T14:58:27.826Z,101133.19
2022-08-22T15:01:09.923Z,101146.28
2022-08-22T15:03:58.783Z,101173.19
2022-08-22T15:06:48.852Z,101119.63
2022-08-22T15:12:29.245Z,101145.41
2022-08-22T15:15:02.228Z,101145.59
2022-08-22T15:27:41.028Z,101168.63
2022-08-22T15:38:32.711Z,101181.31
2022-08-22T16:01:22.488Z,101165.88
2022-08-22T16:04:28.445Z,101135.38
2022-08-22T16:52:11.003Z,101113.91
2022-08-22T17:02:50.475Z,101179.94
2022-08-22T17:06:06.037Z,101168.69
2022-08-22T17:24:33.584Z,101190.63
2022-08-22T17:27:55.640Z,101189.09
2022-08-22T17:31:23.944Z,101191.47
2022-08-22T18:50:22.791Z,101269.22
2022-08-22T18:53:02.345Z,101269.13
2022-08-22T20:51:39.192Z,101291.81
2022-08-22T21:10:09.376Z,101299.28
2022-08-22T21:12:38.984Z,101280.16
2022-08-22T21:15:06.057Z,101249.28
2022-08-22T21:17:39.094Z,101257.66
2022-08-22T21:20:18.385Z,101268.91
2022-08-22T21:22:45.134Z,101290.31
2022-08-22T21:25:11.727Z,101292.72
2022-08-22T21:27:38.606Z,101285.47
2022-08-22T21:30:08.532Z,101286.91
2022-08-22T21:32:38.544Z,101288.69
2022-08-22T21:35:24.835Z,101292.88
2022-08-22T21:37:52.108Z,101281.69
2022-08-22T21:40:29.174Z,101295.41
2022-08-22T21:43:02.746Z,101257.31
2022-08-22T21:45:34.643Z,101294.19
2022-08-22T21:48:02.121Z,101282.03
2022-08-22T21:50:39.408Z,101263.91
2022-08-22T21:53:16.878Z,101304.72
2022-08-22T21:55:44.696Z,101279.78
2022-08-22T21:58:26.966Z,101315.00
2022-08-22T22:01:29.755Z,101259.69
2022-08-22T22:03:58.574Z,101243.16
2022-08-22T22:06:26.289Z,101283.22
2022-08-22T22:08:53.006Z,101259.09
2022-08-22T22:11:19.765Z,101304.44
2022-08-22T22:13:46.797Z,101247.84
2022-08-22T22:16:13.662Z,101288.97
2022-08-22T22:18:46.340Z,101246.16
2022-08-22T22:21:15.468Z,101252.50
2022-08-22T22:23:42.165Z,101301.63
2022-08-22T22:26:08.906Z,101311.47
2022-08-22T22:28:41.833Z,101264.56
2022-08-22T22:31:18.581Z,101292.25
2022-08-22T22:34:03.522Z,101280.44
2022-08-22T22:36:32.369Z,101315.63
2022-08-22T22:39:01.553Z,101312.19
2022-08-22T22:41:28.167Z,101314.47
2022-08-22T22:43:55.423Z,101286.81
2022-08-22T22:46:22.710Z,101290.50
2022-08-22T22:48:50.084Z,101252.59
2022-08-22T22:51:16.857Z,101240.50
2022-08-22T22:53:44.929Z,101299.50
2022-08-22T22:56:21.503Z,101256.31
2022-08-22T22:59:00.718Z,101246.03
2022-08-22T23:01:33.750Z,101250.06
2022-08-22T23:04:15.513Z,101243.34
2022-08-22T23:06:54.736Z,101278.53
2022-08-22T23:09:38.000Z,101246.19
2022-08-22T23:12:19.234Z,101256.63
2022-08-22T23:14:48.970Z,101259.75
2022-08-22T23:17:16.087Z,101286.78
2022-08-22T23:19:43.471Z,101258.19
2022-08-22T23:22:13.160Z,101259.31
2022-08-22T23:24:40.663Z,101235.38
2022-08-22T23:27:08.997Z,101255.56
2022-08-22T23:29:37.346Z,101260.03
2022-08-22T23:32:11.359Z,101230.81
2022-08-22T23:34:48.880Z,101269.97
2022-08-22T23:37:19.562Z,101277.69
2022-08-22T23:39:46.543Z,101249.34
2022-08-22T23:42:14.123Z,101290.84
2022-08-22T23:44:42.402Z,101228.81
2022-08-22T23:47:10.286Z,101282.81
2022-08-22T23:49:39.676Z,101228.41
2022-08-22T23:52:09.432Z,101285.41
2022-08-22T23:54:36.258Z,101266.31
2022-08-22T23:57:03.999Z,101281.09
2022-08-22T23:59:43.373Z,101231.97
